Time;durP1;ratioP1;P1;durP2;ratioP2;P2;SDS_P1;SDS_P2;PMS_P1;PMS_P2;Temp;Humidity;BMP_temperature;BMP_pressure;BME280_temperature;BME280_humidity;BME280_pressure;Samples;Min_cycle;Max_cycle;Signal;HPM_P1;HPM_P2
2022/01/26 00:06:52;;;;;;;67.43;31.83;;;4.60;99.90;;;;;;5060845;28;20447;-86
2022/01/26 00:09:20;;;;;;;62.07;32.23;;;4.50;99.90;;;;;;5059344;28;20928;-87
2022/01/26 00:11:48;;;;;;;65.37;32.40;;;4.60;99.90;;;;;;5058864;28;20518;-86
2022/01/26 00:14:15;;;;;;;59.90;31.00;;;4.60;99.90;;;;;;5058779;28;20840;-86
2022/01/26 00:16:43;;;;;;;59.30;30.20;;;4.60;99.90;;;;;;5056239;28;20462;-86
2022/01/26 00:19:15;;;;;;;65.40;31.67;;;4.50;99.90;;;;;;5049399;28;20501;-84
2022/01/26 00:21:47;;;;;;;66.93;31.90;;;4.50;99.90;;;;;;5060019;28;20472;-86
2022/01/26 00:27:07;;;;;;;54.13;29.80;;;4.50;99.90;;;;;;5054511;28;20440;-86
2022/01/26 00:29:36;;;;;;;69.97;33.27;;;4.40;99.90;;;;;;5059037;28;20961;-85
2022/01/26 00:40:27;;;;;;;59.33;28.97;;;4.60;99.90;;;;;;5058557;28;20443;-85
2022/01/26 00:43:01;;;;;;;55.93;30.20;;;4.60;99.90;;;;;;5058105;28;20512;-84
2022/01/26 00:45:34;;;;;;;59.37;32.13;;;4.60;99.90;;;;;;5058667;28;20797;-86
2022/01/26 00:48:03;;;;;;;63.00;32.37;;;4.60;99.90;;;;;;5056487;28;20462;-87
2022/01/26 00:50:31;;;;;;;64.07;31.23;;;4.50;99.90;;;;;;5058893;28;20448;-87
2022/01/26 00:52:58;;;;;;;61.97;30.70;;;4.60;99.90;;;;;;5058151;28;20477;-87
2022/01/26 00:55:25;;;;;;;61.80;31.57;;;4.60;99.90;;;;;;5058982;28;20445;-86
2022/01/26 00:57:52;;;;;;;68.57;32.87;;;4.60;99.90;;;;;;5058889;28;20463;-87
2022/01/26 01:00:22;;;;;;;61.33;31.13;;;4.60;99.90;;;;;;5061861;28;20542;-86
2022/01/26 01:02:50;;;;;;;62.70;32.87;;;4.60;99.90;;;;;;5063266;28;20935;-86
2022/01/26 01:05:19;;;;;;;57.30;30.80;;;4.60;99.90;;;;;;5062880;28;20549;-85
2022/01/26 01:07:48;;;;;;;63.57;32.70;;;4.60;99.90;;;;;;5045457;28;20489;-87
2022/01/26 01:10:18;;;;;;;63.37;31.57;;;4.60;99.90;;;;;;5054358;28;20516;-85
2022/01/26 01:12:47;;;;;;;62.60;30.47;;;4.60;99.90;;;;;;5064205;28;20478;-86
2022/01/26 01:15:15;;;;;;;61.77;32.17;;;4.60;99.90;;;;;;5066925;28;20440;-84
2022/01/26 01:17:48;;;;;;;69.70;33.83;;;4.50;99.90;;;;;;5070537;28;21035;-86
2022/01/26 01:20:31;;;;;;;69.90;35.20;;;4.50;99.90;;;;;;5061309;28;20456;-81
2022/01/26 01:23:16;;;;;;;58.87;29.97;;;4.60;99.90;;;;;;5042281;28;20495;-84
2022/01/26 01:28:45;;;;;;;71.17;37.63;;;4.50;99.90;;;;;;5043310;28;20800;-87
2022/01/26 01:31:16;;;;;;;74.87;34.83;;;4.50;99.90;;;;;;5043804;28;20480;-85
2022/01/26 01:33:47;;;;;;;51.63;30.10;;;4.50;99.90;;;;;;5063798;28;20466;-85
2022/01/26 01:36:14;;;;;;;72.60;35.00;;;4.50;99.90;;;;;;5064099;28;20443;-85
2022/01/26 01:38:43;;;;;;;61.07;32.47;;;4.40;99.90;;;;;;5062262;28;20460;-86
2022/01/26 01:41:10;;;;;;;57.13;29.60;;;4.50;99.90;;;;;;5061043;28;20457;-86
2022/01/26 01:43:38;;;;;;;59.73;29.70;;;4.50;99.90;;;;;;5061683;28;20490;-87
2022/01/26 01:46:05;;;;;;;57.23;30.80;;;4.50;99.90;;;;;;5061051;28;20540;-85
2022/01/26 01:48:33;;;;;;;72.47;33.87;;;4.50;99.90;;;;;;5064353;28;20455;-85
2022/01/26 01:51:07;;;;;;;66.57;32.27;;;4.50;99.90;;;;;;5065411;28;20877;-85
2022/01/26 01:53:38;;;;;;;56.60;31.17;;;4.50;99.90;;;;;;5060940;28;20471;-86
2022/01/26 01:56:06;;;;;;;65.90;33.60;;;4.50;99.90;;;;;;5063139;28;20464;-85
2022/01/26 01:58:33;;;;;;;59.67;32.77;;;4.50;99.90;;;;;;5064389;28;20489;-87
2022/01/26 02:01:00;;;;;;;66.37;33.80;;;4.50;99.90;;;;;;5065233;28;20458;-87
2022/01/26 02:03:27;;;;;;;61.03;31.73;;;4.50;99.90;;;;;;5062707;28;20483;-86
2022/01/26 02:05:54;;;;;;;64.17;33.10;;;4.50;99.90;;;;;;5061657;28;20486;-86
2022/01/26 02:08:22;;;;;;;60.17;33.43;;;4.50;99.90;;;;;;5063948;28;20466;-87
2022/01/26 02:10:50;;;;;;;65.10;31.53;;;4.60;99.90;;;;;;5061922;28;20452;-86
2022/01/26 02:13:21;;;;;;;65.43;33.60;;;4.60;99.90;;;;;;5063306;28;20494;-86
2022/01/26 02:15:55;;;;;;;68.57;33.60;;;4.40;99.90;;;;;;5062177;28;20513;-87
2022/01/26 02:21:27;;;;;;;70.40;35.10;;;4.40;99.90;;;;;;5061427;28;20495;-83
2022/01/26 02:51:39;;;;;;;66.13;31.97;;;4.20;99.90;;;;;;5046389;28;20479;-87
2022/01/26 02:57:13;;;;;;;67.53;32.60;;;4.20;99.90;;;;;;5063107;28;20451;-87
2022/01/26 03:00:00;;;;;;;78.33;38.03;;;4.20;99.90;;;;;;5064283;28;20539;-88
2022/01/26 03:02:35;;;;;;;63.90;31.37;;;4.10;99.90;;;;;;5043754;28;20477;-87
2022/01/26 03:05:04;;;;;;;68.53;34.30;;;4.20;99.90;;;;;;5044252;28;20484;-86
2022/01/26 03:07:41;;;;;;;72.47;34.93;;;4.10;99.90;;;;;;5050943;28;20487;-87
2022/01/26 03:10:17;;;;;;;72.40;35.67;;;4.00;99.90;;;;;;5057073;28;20451;-86
2022/01/26 03:12:50;;;;;;;67.60;33.80;;;4.00;99.90;;;;;;5060724;28;20479;-86
2022/01/26 03:15:21;;;;;;;64.63;34.10;;;4.00;99.90;;;;;;5059863;28;20522;-86
2022/01/26 03:18:08;;;;;;;77.43;37.10;;;4.10;99.90;;;;;;5059920;28;21054;-86
2022/01/26 03:20:37;;;;;;;73.20;34.10;;;4.10;99.90;;;;;;5061835;28;20464;-86
2022/01/26 03:28:42;;;;;;;70.17;35.30;;;4.10;99.90;;;;;;5063684;28;20944;-86
2022/01/26 03:33:58;;;;;;;74.07;36.73;;;4.10;99.90;;;;;;5055071;28;20445;-85
2022/01/26 03:36:28;;;;;;;78.83;37.77;;;4.10;99.90;;;;;;5057185;28;20531;-87
2022/01/26 03:39:04;;;;;;;71.27;36.87;;;4.00;99.90;;;;;;5051246;28;20832;-85
2022/01/26 03:41:39;;;;;;;73.23;35.37;;;3.90;99.90;;;;;;5056746;28;20463;-86
2022/01/26 03:44:06;;;;;;;76.87;36.03;;;3.90;99.90;;;;;;5072084;28;20468;-84
2022/01/26 03:46:33;;;;;;;66.60;35.10;;;4.00;99.90;;;;;;5069035;28;20452;-85
2022/01/26 03:49:00;;;;;;;81.90;37.73;;;4.10;99.90;;;;;;5057600;28;20807;-86
2022/01/26 03:51:28;;;;;;;88.57;39.83;;;4.00;99.90;;;;;;5062127;28;20450;-86
2022/01/26 03:53:55;;;;;;;69.47;35.27;;;4.00;99.90;;;;;;5061411;28;20444;-86
2022/01/26 03:56:22;;;;;;;77.70;38.43;;;4.00;99.90;;;;;;5061696;28;20462;-87
2022/01/26 03:58:52;;;;;;;81.40;40.47;;;4.00;99.90;;;;;;5060072;28;20460;-87
2022/01/26 04:01:19;;;;;;;78.50;37.70;;;4.10;99.90;;;;;;5061092;28;20452;-86
2022/01/26 04:03:45;;;;;;;78.03;38.07;;;4.00;99.90;;;;;;5063135;28;20514;-87
2022/01/26 04:06:12;;;;;;;76.67;38.53;;;4.00;99.90;;;;;;5070710;28;20489;-85
2022/01/26 04:08:42;;;;;;;75.40;37.20;;;4.00;99.90;;;;;;5070558;28;20444;-86
2022/01/26 04:11:24;;;;;;;81.33;42.17;;;4.10;99.90;;;;;;5062617;28;20796;-87
2022/01/26 04:13:53;;;;;;;83.97;39.27;;;4.00;99.90;;;;;;5061656;28;20449;-87
2022/01/26 04:16:20;;;;;;;71.23;39.50;;;4.00;99.90;;;;;;5059914;28;20557;-87
2022/01/26 04:18:47;;;;;;;82.80;41.17;;;4.10;99.90;;;;;;5055977;28;20452;-87
2022/01/26 04:21:22;;;;;;;89.97;40.80;;;4.00;99.90;;;;;;5061599;28;20851;-86
2022/01/26 04:23:53;;;;;;;84.00;42.93;;;3.90;99.90;;;;;;5061740;28;20506;-82
2022/01/26 04:26:26;;;;;;;87.70;44.53;;;4.00;99.90;;;;;;5060542;28;20467;-87
2022/01/26 04:28:58;;;;;;;98.07;45.50;;;4.00;99.90;;;;;;5060609;28;20466;-85
2022/01/26 04:31:25;;;;;;;90.30;44.87;;;4.10;99.90;;;;;;5060491;28;20870;-87
2022/01/26 04:33:53;;;;;;;92.87;43.97;;;4.10;99.90;;;;;;5060642;28;20452;-87
2022/01/26 04:36:25;;;;;;;91.43;43.50;;;4.10;99.90;;;;;;5062912;28;20459;-86
2022/01/26 04:38:56;;;;;;;93.90;43.20;;;4.10;99.90;;;;;;5053315;28;20465;-85
2022/01/26 04:41:30;;;;;;;92.57;43.33;;;4.00;99.90;;;;;;5044470;28;20467;-86
2022/01/26 04:44:03;;;;;;;108.53;48.63;;;4.00;99.90;;;;;;5057272;28;20517;-85
2022/01/26 04:46:30;;;;;;;115.23;48.97;;;4.00;99.90;;;;;;5059371;28;20485;-85
2022/01/26 04:48:57;;;;;;;113.37;48.27;;;4.00;99.90;;;;;;5044916;28;20479;-86
2022/01/26 04:51:24;;;;;;;104.53;47.93;;;3.90;99.90;;;;;;5056141;28;20451;-84
2022/01/26 04:53:50;;;;;;;123.87;56.57;;;3.90;99.90;;;;;;5052538;28;20513;-86
2022/01/26 04:56:17;;;;;;;121.80;53.43;;;3.90;99.90;;;;;;5043197;28;20511;-85
2022/01/26 04:58:44;;;;;;;111.00;51.10;;;3.80;99.90;;;;;;5060747;28;20481;-85
2022/01/26 05:01:12;;;;;;;116.97;54.23;;;3.80;99.90;;;;;;5061063;28;20455;-84
2022/01/26 05:03:39;;;;;;;115.90;52.47;;;3.90;99.90;;;;;;5044714;22;20873;-79
2022/01/26 05:06:06;;;;;;;122.23;52.60;;;3.90;99.90;;;;;;5015618;28;20454;-81
2022/01/26 05:08:33;;;;;;;118.23;51.80;;;3.80;99.90;;;;;;5020372;28;20453;-81
2022/01/26 05:11:01;;;;;;;118.57;51.20;;;3.80;99.90;;;;;;5020581;28;20568;-81
2022/01/26 05:13:28;;;;;;;113.17;53.73;;;3.80;99.90;;;;;;5018303;28;20512;-83
2022/01/26 05:15:55;;;;;;;127.33;52.97;;;3.80;99.90;;;;;;5019675;28;20442;-81
2022/01/26 05:18:24;;;;;;;124.20;53.73;;;3.80;99.90;;;;;;5017389;28;20450;-81
2022/01/26 05:20:50;;;;;;;133.43;53.40;;;3.80;99.90;;;;;;5019597;28;20668;-82
2022/01/26 05:23:18;;;;;;;130.00;54.53;;;3.80;99.90;;;;;;5019572;28;20485;-80
2022/01/26 05:25:44;;;;;;;120.37;54.73;;;3.90;99.90;;;;;;5021455;28;20556;-81
2022/01/26 05:28:11;;;;;;;136.17;57.07;;;3.90;99.90;;;;;;5002821;28;20447;-83
2022/01/26 05:30:38;;;;;;;125.80;56.40;;;3.90;99.90;;;;;;5004081;28;20458;-82
2022/01/26 05:33:05;;;;;;;122.07;53.53;;;3.80;99.90;;;;;;5018492;28;20467;-82
2022/01/26 05:35:34;;;;;;;115.27;52.40;;;3.80;99.90;;;;;;5019108;28;20465;-81
2022/01/26 05:38:01;;;;;;;114.57;51.20;;;3.90;99.90;;;;;;5003668;28;20479;-81
2022/01/26 05:40:28;;;;;;;115.00;51.53;;;3.90;99.90;;;;;;5019059;28;20450;-81
2022/01/26 05:42:55;;;;;;;110.23;48.70;;;3.90;99.90;;;;;;5018527;28;20538;-81
2022/01/26 05:45:28;;;;;;;117.47;52.27;;;4.00;99.90;;;;;;5020929;28;20504;-81
2022/01/26 05:47:54;;;;;;;120.53;59.57;;;3.90;99.90;;;;;;5005269;28;20856;-80
2022/01/26 05:50:22;;;;;;;111.03;50.90;;;4.00;99.90;;;;;;4998569;28;20451;-81
2022/01/26 05:52:50;;;;;;;105.80;48.17;;;3.90;99.90;;;;;;5009488;28;20491;-80
2022/01/26 05:55:18;;;;;;;102.73;44.23;;;3.90;99.90;;;;;;5017986;28;20456;-81
2022/01/26 05:57:44;;;;;;;102.97;45.23;;;4.00;99.90;;;;;;5005697;28;20493;-80
2022/01/26 06:00:12;;;;;;;103.37;45.50;;;4.00;99.90;;;;;;5016603;28;20464;-80
2022/01/26 06:02:39;;;;;;;102.70;44.87;;;4.00;99.90;;;;;;5017043;28;20481;-81
2022/01/26 06:05:07;;;;;;;96.33;42.30;;;4.00;99.90;;;;;;5016712;28;20519;-81
2022/01/26 06:07:34;;;;;;;99.23;46.50;;;3.90;99.90;;;;;;5017079;28;20454;-81
2022/01/26 06:10:03;;;;;;;101.77;46.47;;;3.90;99.90;;;;;;5017523;28;20458;-80
2022/01/26 06:12:33;;;;;;;105.57;44.60;;;3.90;99.90;;;;;;5017208;28;20562;-82
2022/01/26 06:15:00;;;;;;;104.00;43.17;;;3.90;99.90;;;;;;5016569;28;20451;-80
2022/01/26 06:17:27;;;;;;;107.50;47.37;;;4.00;99.90;;;;;;5017149;28;20450;-81
2022/01/26 06:19:54;;;;;;;103.07;43.67;;;3.90;99.90;;;;;;5015915;28;20454;-80
2022/01/26 06:22:20;;;;;;;120.10;47.40;;;3.90;99.90;;;;;;5017841;28;21017;-80
2022/01/26 06:24:47;;;;;;;116.50;48.00;;;3.80;99.90;;;;;;5015959;28;20855;-82
2022/01/26 06:27:15;;;;;;;122.83;49.67;;;3.80;99.90;;;;;;5010296;28;20478;-80
2022/01/26 06:29:42;;;;;;;105.00;48.20;;;3.90;99.90;;;;;;4998174;28;20587;-80
2022/01/26 06:32:09;;;;;;;128.83;53.47;;;3.90;99.90;;;;;;5013727;28;20485;-80
2022/01/26 06:34:39;;;;;;;114.43;49.17;;;3.90;99.90;;;;;;5016445;28;20532;-82
2022/01/26 06:37:06;;;;;;;117.47;50.10;;;3.90;99.90;;;;;;5011800;28;20458;-80
2022/01/26 06:39:34;;;;;;;118.63;49.23;;;3.90;99.90;;;;;;5007540;28;20836;-80
2022/01/26 06:42:01;;;;;;;107.10;49.17;;;3.90;99.90;;;;;;5018400;28;20499;-81
2022/01/26 06:44:30;;;;;;;124.17;50.07;;;3.90;99.90;;;;;;5019228;28;20553;-81
2022/01/26 06:47:14;;;;;;;118.27;50.77;;;3.80;99.90;;;;;;5018653;28;20450;-81
2022/01/26 06:49:40;;;;;;;119.47;49.77;;;3.80;99.90;;;;;;5020119;28;20450;-80
2022/01/26 06:52:08;;;;;;;131.33;57.40;;;3.80;99.90;;;;;;5021893;28;20480;-81
2022/01/26 06:54:35;;;;;;;104.00;47.40;;;3.90;99.90;;;;;;5020328;28;20449;-82
2022/01/26 06:57:01;;;;;;;117.83;51.97;;;3.90;99.90;;;;;;5020308;28;20449;-82
2022/01/26 06:59:29;;;;;;;120.90;52.73;;;3.90;99.90;;;;;;5021573;28;20469;-81
2022/01/26 07:01:56;;;;;;;108.50;49.67;;;3.90;99.90;;;;;;5020245;28;20468;-80
2022/01/26 07:04:23;;;;;;;123.70;54.37;;;3.90;99.90;;;;;;5018661;28;20470;-82
2022/01/26 07:06:50;;;;;;;111.97;50.47;;;3.70;99.90;;;;;;5015933;28;20561;-82
2022/01/26 07:09:17;;;;;;;107.83;46.73;;;3.60;99.90;;;;;;5012475;28;20480;-81
2022/01/26 07:11:45;;;;;;;110.40;45.67;;;3.60;99.90;;;;;;5001164;28;20503;-80
2022/01/26 07:14:21;;;;;;;104.90;46.17;;;3.80;99.90;;;;;;4998797;28;20973;-79
2022/01/26 07:19:53;;;;;;;110.47;46.03;;;3.80;99.90;;;;;;4997049;28;20974;-80
2022/01/26 07:22:20;;;;;;;111.47;48.23;;;3.80;99.90;;;;;;4997006;28;20537;-80
2022/01/26 07:24:47;;;;;;;120.73;49.13;;;3.80;99.90;;;;;;5015056;28;20478;-81
2022/01/26 07:27:15;;;;;;;103.20;46.33;;;3.80;99.90;;;;;;5016791;28;20457;-81
2022/01/26 07:29:42;;;;;;;120.93;50.40;;;3.90;99.90;;;;;;5015947;28;20536;-81
2022/01/26 07:32:10;;;;;;;97.87;47.80;;;3.90;99.90;;;;;;5010730;28;20477;-81
2022/01/26 07:34:39;;;;;;;96.90;44.60;;;4.00;99.90;;;;;;5017264;28;20443;-80
2022/01/26 07:37:08;;;;;;;104.90;45.00;;;3.90;99.90;;;;;;5016247;28;20455;-82
2022/01/26 07:39:44;;;;;;;109.80;45.37;;;3.90;99.90;;;;;;5016410;28;20465;-80
2022/01/26 07:42:11;;;;;;;104.63;45.73;;;3.90;99.90;;;;;;5008505;28;20500;-82
2022/01/26 07:44:38;;;;;;;102.80;47.27;;;4.00;99.90;;;;;;5003038;28;20490;-80
2022/01/26 07:47:05;;;;;;;102.60;44.60;;;4.00;99.90;;;;;;5015829;28;20458;-81
2022/01/26 07:49:34;;;;;;;119.37;49.13;;;3.90;99.90;;;;;;5015909;28;20497;-81
2022/01/26 07:52:01;;;;;;;100.00;44.17;;;4.00;99.90;;;;;;5007170;28;20508;-82
2022/01/26 07:54:27;;;;;;;102.83;46.97;;;4.00;99.90;;;;;;5003187;28;20493;-82
2022/01/26 07:56:54;;;;;;;106.57;47.77;;;4.00;99.90;;;;;;5005906;28;20449;-82
2022/01/26 07:59:21;;;;;;;135.03;60.57;;;3.90;99.90;;;;;;5011839;28;20497;-80
2022/01/26 08:01:48;;;;;;;110.60;47.70;;;3.90;99.90;;;;;;5004664;28;20453;-81
2022/01/26 08:04:15;;;;;;;99.03;47.33;;;4.00;99.90;;;;;;5006602;28;20441;-82
2022/01/26 08:06:44;;;;;;;114.00;47.10;;;4.00;99.90;;;;;;5007782;28;20484;-81
2022/01/26 08:09:11;;;;;;;103.93;49.20;;;3.90;99.90;;;;;;5008292;28;20478;-82
2022/01/26 08:11:38;;;;;;;111.40;46.00;;;4.00;99.90;;;;;;5009907;28;20445;-83
2022/01/26 08:14:05;;;;;;;115.87;48.90;;;4.00;99.90;;;;;;5010356;28;20470;-81
2022/01/26 08:16:32;;;;;;;113.13;45.87;;;3.80;99.90;;;;;;5006965;28;20454;-82
2022/01/26 08:18:58;;;;;;;115.87;48.93;;;3.80;99.90;;;;;;5014123;28;20468;-80
2022/01/26 08:21:25;;;;;;;115.83;46.47;;;3.70;99.90;;;;;;5010787;28;20572;-80
2022/01/26 08:24:01;;;;;;;110.40;44.90;;;3.70;99.90;;;;;;5010777;28;20513;-82
2022/01/26 08:26:38;;;;;;;106.77;46.10;;;3.60;99.90;;;;;;5010790;28;20477;-81
2022/01/26 08:29:16;;;;;;;107.20;45.40;;;3.70;99.90;;;;;;5013009;28;20464;-81
2022/01/26 08:31:43;;;;;;;105.67;43.13;;;3.70;99.90;;;;;;5016910;28;20957;-82
2022/01/26 08:34:10;;;;;;;112.90;46.63;;;3.70;99.90;;;;;;5016682;28;20462;-82
2022/01/26 08:36:37;;;;;;;109.33;46.00;;;3.70;99.90;;;;;;5012381;28;20457;-82
2022/01/26 08:39:06;;;;;;;103.80;41.80;;;3.70;99.90;;;;;;5020878;28;20544;-82
2022/01/26 08:41:33;;;;;;;107.23;44.30;;;3.80;99.90;;;;;;5011563;28;20466;-81
2022/01/26 08:43:59;;;;;;;102.93;44.13;;;3.80;99.90;;;;;;5016488;28;20473;-80
2022/01/26 08:46:26;;;;;;;109.07;44.43;;;3.80;99.90;;;;;;5013053;28;20492;-81
2022/01/26 08:48:53;;;;;;;115.50;47.20;;;3.80;99.90;;;;;;5010809;28;20904;-80
2022/01/26 08:51:20;;;;;;;108.83;44.43;;;3.70;99.90;;;;;;5012116;28;20600;-80
2022/01/26 08:53:47;;;;;;;114.00;47.03;;;3.70;99.90;;;;;;5030797;28;20437;-82
2022/01/26 08:56:16;;;;;;;105.03;44.33;;;3.80;99.90;;;;;;5020219;28;20510;-81
2022/01/26 08:58:43;;;;;;;115.23;44.70;;;3.90;99.90;;;;;;5033289;28;20447;-81
2022/01/26 09:01:10;;;;;;;96.10;42.87;;;3.90;99.90;;;;;;5026905;28;20514;-83
2022/01/26 09:03:39;;;;;;;126.77;44.90;;;3.80;99.90;;;;;;5035615;28;20536;-82
2022/01/26 09:06:06;;;;;;;122.57;49.00;;;3.70;99.90;;;;;;5025726;28;20466;-82
2022/01/26 09:08:33;;;;;;;111.37;44.87;;;3.80;99.90;;;;;;5029042;28;20427;-83
2022/01/26 09:11:02;;;;;;;114.40;44.53;;;3.70;99.90;;;;;;5022430;28;20442;-82
2022/01/26 09:13:32;;;;;;;109.50;46.20;;;3.80;99.90;;;;;;5010139;28;20482;-82
2022/01/26 09:15:59;;;;;;;117.17;46.23;;;3.80;99.90;;;;;;5011710;28;20458;-81
2022/01/26 09:18:33;;;;;;;111.73;44.73;;;3.70;99.90;;;;;;5015739;28;20449;-81
2022/01/26 09:21:00;;;;;;;105.80;42.43;;;3.70;99.90;;;;;;5014002;28;20473;-82
2022/01/26 09:23:27;;;;;;;114.33;45.63;;;3.80;99.90;;;;;;5015184;28;20479;-82
2022/01/26 09:25:54;;;;;;;111.17;46.83;;;3.70;99.90;;;;;;5010230;28;20504;-82
2022/01/26 09:28:21;;;;;;;105.87;42.60;;;3.70;99.90;;;;;;5013590;28;20460;-82
2022/01/26 09:30:49;;;;;;;116.43;44.33;;;3.80;99.90;;;;;;5019010;28;20457;-82
2022/01/26 09:33:16;;;;;;;105.27;44.83;;;3.80;99.90;;;;;;5017715;28;20474;-80
2022/01/26 09:35:44;;;;;;;102.27;41.87;;;3.90;99.90;;;;;;5005204;28;20457;-82
2022/01/26 09:38:11;;;;;;;101.83;44.10;;;4.00;99.90;;;;;;5017921;28;20496;-82
2022/01/26 09:40:38;;;;;;;101.10;40.03;;;4.00;99.90;;;;;;5017925;28;20755;-81
2022/01/26 09:43:05;;;;;;;104.43;44.20;;;4.10;99.90;;;;;;5017605;28;20471;-81
2022/01/26 09:45:34;;;;;;;116.57;42.20;;;4.10;99.90;;;;;;5018724;28;20486;-82
2022/01/26 09:48:03;;;;;;;111.50;46.17;;;4.00;99.90;;;;;;4998450;28;20462;-82
2022/01/26 09:50:30;;;;;;;110.53;43.07;;;4.00;99.90;;;;;;4998493;28;20806;-82
2022/01/26 09:52:58;;;;;;;107.67;42.90;;;4.10;99.90;;;;;;5018260;28;20472;-79
2022/01/26 09:55:26;;;;;;;117.67;44.10;;;4.00;99.90;;;;;;5016689;28;20489;-81
2022/01/26 09:57:57;;;;;;;114.40;46.07;;;3.80;99.90;;;;;;5016864;28;20430;-81
2022/01/26 10:00:25;;;;;;;109.33;47.17;;;3.90;99.90;;;;;;5018346;28;20493;-81
2022/01/26 10:02:57;;;;;;;114.63;45.73;;;3.90;99.90;;;;;;5017676;28;20484;-82
2022/01/26 10:05:25;;;;;;;106.97;41.60;;;4.00;99.90;;;;;;5017220;28;20848;-81
2022/01/26 10:08:02;;;;;;;120.93;43.73;;;4.10;99.90;;;;;;5016780;28;20458;-81
2022/01/26 10:15:26;;;;;;;113.50;47.43;;;4.10;99.90;;;;;;5010621;28;20501;-81
2022/01/26 10:16:39;;;;;;;119.03;47.40;;;3.80;99.90;;;;;;5005783;28;20484;-82
2022/01/26 10:19:08;;;;;;;113.67;43.47;;;3.80;99.90;;;;;;5006533;28;20439;-80
2022/01/26 10:21:47;;;;;;;127.77;48.67;;;3.90;99.90;;;;;;5010344;28;20485;-82
2022/01/26 10:24:15;;;;;;;116.70;44.90;;;3.90;99.90;;;;;;5003051;28;20454;-81
2022/01/26 10:26:48;;;;;;;122.63;48.27;;;3.90;99.90;;;;;;5013991;28;20489;-80
2022/01/26 10:29:16;;;;;;;117.20;45.50;;;4.00;99.90;;;;;;4996842;28;20451;-81
2022/01/26 10:31:43;;;;;;;118.03;48.27;;;4.10;99.90;;;;;;5003888;28;20460;-82
2022/01/26 10:34:12;;;;;;;127.40;48.57;;;4.00;99.90;;;;;;5009222;28;20477;-80
2022/01/26 10:36:40;;;;;;;113.40;46.60;;;4.00;99.90;;;;;;5003202;28;20444;-82
2022/01/26 10:39:12;;;;;;;129.50;47.23;;;4.00;99.90;;;;;;5012142;28;20450;-81
2022/01/26 10:41:40;;;;;;;120.40;46.43;;;4.00;99.90;;;;;;5016272;28;20650;-80
2022/01/26 10:44:08;;;;;;;123.97;44.70;;;4.10;99.90;;;;;;5010611;28;20462;-82
2022/01/26 10:46:38;;;;;;;117.70;46.83;;;4.20;99.90;;;;;;5012778;28;20483;-82
2022/01/26 10:49:14;;;;;;;123.00;46.80;;;4.10;99.90;;;;;;5013743;28;20454;-79
2022/01/26 10:54:36;;;;;;;141.73;52.27;;;4.10;99.90;;;;;;5013311;28;20448;-80
2022/01/26 10:57:05;;;;;;;123.37;48.00;;;4.00;99.90;;;;;;5016977;28;20453;-82
2022/01/26 10:59:34;;;;;;;128.17;49.40;;;4.10;99.90;;;;;;5012393;28;20453;-81
2022/01/26 11:02:02;;;;;;;126.17;50.03;;;4.00;99.90;;;;;;5011297;28;22125;-81
2022/01/26 11:04:30;;;;;;;137.60;48.97;;;4.10;99.90;;;;;;5087288;22;20585;-82
2022/01/26 11:06:57;;;;;;;120.57;48.83;;;4.20;99.90;;;;;;5080460;28;20565;-83
2022/01/26 11:09:31;;;;;;;117.43;46.80;;;4.10;99.90;;;;;;5092396;28;20443;-82
2022/01/26 11:12:05;;;;;;;120.63;49.10;;;4.10;99.90;;;;;;5092788;28;20447;-86
2022/01/26 11:14:43;;;;;;;124.20;50.13;;;4.20;99.90;;;;;;5086042;28;20554;-84
2022/01/26 11:17:13;;;;;;;120.37;47.97;;;4.30;99.90;;;;;;5097165;28;20513;-84
2022/01/26 11:19:44;;;;;;;123.23;48.90;;;4.30;99.90;;;;;;5082359;28;20515;-83
2022/01/26 11:22:14;;;;;;;132.10;49.77;;;4.30;99.90;;;;;;5082542;28;20472;-85
2022/01/26 11:24:46;;;;;;;128.83;50.33;;;4.30;99.90;;;;;;5082440;28;21023;-84
2022/01/26 11:27:15;;;;;;;135.90;52.00;;;4.30;99.90;;;;;;5069800;28;20514;-86
2022/01/26 11:29:45;;;;;;;127.80;49.10;;;4.10;99.90;;;;;;5075357;28;20546;-84
2022/01/26 11:32:19;;;;;;;123.60;46.47;;;4.10;99.90;;;;;;5083380;28;20451;-83
2022/01/26 11:34:50;;;;;;;113.70;44.17;;;4.30;99.90;;;;;;5081393;28;20474;-80
2022/01/26 11:37:25;;;;;;;118.53;46.20;;;4.20;99.90;;;;;;5081702;28;20452;-85
2022/01/26 11:45:35;;;;;;;122.87;44.73;;;4.20;99.90;;;;;;5080673;28;20426;-84
2022/01/26 11:48:07;;;;;;;116.90;45.67;;;4.10;99.90;;;;;;5074255;28;20504;-84
2022/01/26 11:50:35;;;;;;;116.27;44.33;;;4.10;99.90;;;;;;5077311;28;20455;-85
2022/01/26 11:53:05;;;;;;;114.73;42.90;;;4.20;99.90;;;;;;5065910;28;20468;-83
2022/01/26 11:55:40;;;;;;;108.20;42.20;;;4.30;99.90;;;;;;5077979;28;20447;-85
2022/01/26 11:58:12;;;;;;;98.37;39.63;;;4.30;99.90;;;;;;5077613;28;20845;-84
2022/01/26 12:00:46;;;;;;;104.80;40.93;;;4.30;99.90;;;;;;5082716;28;21022;-84
2022/01/26 12:03:43;;;;;;;117.50;43.33;;;4.30;99.90;;;;;;5094142;28;20488;-83
2022/01/26 12:06:18;;;;;;;122.67;44.90;;;4.20;99.90;;;;;;5065482;28;20483;-85
2022/01/26 12:08:45;;;;;;;117.97;44.47;;;4.00;99.90;;;;;;5079520;28;20452;-84
2022/01/26 12:11:15;;;;;;;113.17;44.00;;;4.10;99.90;;;;;;5088561;28;20537;-85
2022/01/26 12:13:43;;;;;;;101.60;39.13;;;4.20;99.90;;;;;;5075598;28;20474;-85
2022/01/26 12:16:15;;;;;;;105.23;41.43;;;4.30;99.90;;;;;;5060343;28;20884;-85
2022/01/26 12:18:52;;;;;;;106.10;43.40;;;4.40;99.90;;;;;;5078152;28;20455;-83
2022/01/26 12:35:27;;;;;;;98.13;37.97;;;4.50;99.90;;;;;;5078916;28;20450;-84
2022/01/26 12:38:03;;;;;;;107.63;39.80;;;4.40;99.90;;;;;;5069103;28;20507;-85
2022/01/26 12:43:32;;;;;;;83.97;34.80;;;4.40;99.90;;;;;;5078708;28;20468;-86
2022/01/26 12:45:59;;;;;;;88.13;39.73;;;4.40;99.90;;;;;;5078593;28;20823;-86
2022/01/26 12:48:27;;;;;;;87.40;36.00;;;4.30;99.90;;;;;;5082241;28;20526;-85
2022/01/26 12:50:55;;;;;;;90.03;37.70;;;4.40;99.90;;;;;;5079765;28;20843;-86
2022/01/26 12:53:26;;;;;;;97.90;38.70;;;4.30;99.90;;;;;;5080443;28;20475;-85
2022/01/26 12:55:58;;;;;;;88.73;37.63;;;4.30;99.90;;;;;;5082475;28;20515;-84
2022/01/26 12:58:28;;;;;;;106.53;38.70;;;4.30;99.90;;;;;;5082729;28;20461;-84
2022/01/26 13:01:01;;;;;;;99.53;38.73;;;4.30;99.90;;;;;;5085254;28;20455;-83
2022/01/26 13:03:30;;;;;;;97.03;38.30;;;4.20;99.90;;;;;;5084540;28;20470;-84
2022/01/26 13:06:06;;;;;;;96.17;37.03;;;4.20;99.90;;;;;;5085649;28;20561;-83
2022/01/26 13:08:41;;;;;;;86.50;34.67;;;4.30;99.90;;;;;;5084858;28;21118;-84
2022/01/26 13:11:08;;;;;;;93.70;37.17;;;4.30;99.90;;;;;;5086139;28;20477;-83
2022/01/26 13:13:36;;;;;;;97.33;38.80;;;4.30;99.90;;;;;;5082661;28;20845;-83
2022/01/26 13:16:15;;;;;;;96.23;38.33;;;4.20;99.90;;;;;;5085429;28;20519;-83
2022/01/26 13:19:07;;;;;;;93.37;35.90;;;4.20;99.90;;;;;;5075395;28;20797;-84
2022/01/26 13:27:15;;;;;;;80.00;34.60;;;4.20;99.90;;;;;;5070232;28;20475;-84
2022/01/26 13:29:56;;;;;;;84.73;34.57;;;4.20;99.90;;;;;;5084559;28;20462;-84
2022/01/26 13:38:17;;;;;;;79.43;33.03;;;4.20;99.90;;;;;;5041606;28;20426;-84
2022/01/26 13:40:53;;;;;;;74.87;30.63;;;4.20;99.90;;;;;;5077702;28;21045;-84
2022/01/26 13:49:17;;;;;;;65.57;29.33;;;4.10;99.90;;;;;;5077535;28;20439;-84
2022/01/26 13:51:58;;;;;;;70.33;31.03;;;4.10;99.90;;;;;;5097278;28;20497;-84
2022/01/26 13:54:45;;;;;;;73.93;30.43;;;4.10;99.90;;;;;;5090259;28;20489;-83
2022/01/26 13:57:38;;;;;;;69.63;29.70;;;4.10;99.90;;;;;;5103975;28;20458;-84
2022/01/26 14:00:06;;;;;;;64.00;28.77;;;4.20;99.90;;;;;;5103803;28;20793;-84
2022/01/26 14:02:36;;;;;;;84.70;33.20;;;4.20;99.90;;;;;;5097181;28;20463;-84
2022/01/26 14:05:03;;;;;;;70.87;30.00;;;4.10;99.90;;;;;;5083434;28;20448;-84
2022/01/26 14:07:29;;;;;;;69.37;30.37;;;4.20;99.90;;;;;;5081789;28;20526;-83
2022/01/26 14:09:56;;;;;;;74.77;31.03;;;4.30;99.90;;;;;;5074439;28;20452;-84
2022/01/26 14:12:28;;;;;;;84.50;31.67;;;4.30;99.90;;;;;;5064521;28;20905;-84
2022/01/26 14:14:57;;;;;;;68.27;31.50;;;4.30;99.90;;;;;;5081354;28;20465;-85
2022/01/26 14:17:35;;;;;;;64.73;29.60;;;4.40;99.90;;;;;;5085997;28;20833;-84
2022/01/26 14:20:15;;;;;;;67.33;28.20;;;4.40;99.90;;;;;;5081531;28;20458;-85
2022/01/26 14:23:01;;;;;;;58.23;29.43;;;4.40;99.90;;;;;;5081831;28;20444;-86
2022/01/26 14:25:30;;;;;;;78.83;29.87;;;4.50;99.90;;;;;;5084487;28;20458;-81
2022/01/26 14:28:03;;;;;;;67.07;28.80;;;4.50;99.90;;;;;;5110792;28;20515;-85
2022/01/26 14:30:46;;;;;;;71.47;30.50;;;4.50;99.90;;;;;;5095718;28;20449;-85
2022/01/26 14:33:34;;;;;;;75.77;28.77;;;4.50;99.90;;;;;;5108276;28;21008;-85
2022/01/26 14:36:24;;;;;;;61.63;32.03;;;4.40;99.90;;;;;;5094193;28;20463;-84